Terminal Aerodrome Forecast
Issued by NWS

Home | Current Version | Previous Version | Text Only | Print | Product List | Glossary On
Versions: 1 2 3 4 5 6 7 8 9 10 11 12 13
000
FTUS44 KLIX 300500
TAFMCB
TAF
KMCB 300521Z 3006/3106 36008KT P6SM SCT110 BKN250
     FM301400 01009KT P6SM SCT250
     FM310000 02004KT P6SM SCT250=

USA.gov is the U.S. government's official web portal to all federal, state and local government web resources and services.